Akiachak, Alaska
Current Conditions -  °F | °C
As of 5:56 PM on Wednesday 22 Oct 2014 (Local Time) from PFKW Reporting Station
Clear Clear  
Wind Chill: 26°   Ceiling: Unl
Heat Index: 31°   Visibility: 10mi
Dew Point: 27°   Wind: 5mph
Humidity: 85%   Direction: 340°NNW
Pressure: 29.85"   Gusts: NA
Location:  60.91°N, 161.44°W
Report Text: PFKW 230156Z AUTO 34004KT 10SM CLR M01/M03 A2985 RMK AO2 SLP109 T10061028 FZRANO
Loading
Personal Weather Stations






























Interactive Weather Map
Tropical Storm Tracking
New forecast layout! Learn more

10-Day Weather Forecast

Advertisements
Track Severe Weather on mobile